sensor_id;sensor_type;location;lat;lon;timestamp;P1;durP1;ratioP1;P2;durP2;ratioP2
73524;SDS011;61776;56.194;44.160;2022-10-19T00:01:18;2.83;;;0.90;;
73524;SDS011;61776;56.194;44.160;2022-10-19T00:03:46;4.03;;;1.15;;
73524;SDS011;61776;56.194;44.160;2022-10-19T00:08:53;3.33;;;1.13;;
73524;SDS011;61776;56.194;44.160;2022-10-19T00:11:23;3.67;;;1.10;;
73524;SDS011;61776;56.194;44.160;2022-10-19T00:13:50;4.35;;;1.00;;
73524;SDS011;61776;56.194;44.160;2022-10-19T00:16:18;3.92;;;1.30;;
73524;SDS011;61776;56.194;44.160;2022-10-19T00:18:44;3.20;;;1.15;;
73524;SDS011;61776;56.194;44.160;2022-10-19T00:21:11;2.57;;;1.00;;
73524;SDS011;61776;56.194;44.160;2022-10-19T00:23:39;4.43;;;1.20;;
73524;SDS011;61776;56.194;44.160;2022-10-19T00:26:05;2.97;;;1.20;;
73524;SDS011;61776;56.194;44.160;2022-10-19T00:28:32;4.22;;;1.50;;
73524;SDS011;61776;56.194;44.160;2022-10-19T00:31:01;3.40;;;1.23;;
73524;SDS011;61776;56.194;44.160;2022-10-19T00:33:33;3.55;;;0.95;;
73524;SDS011;61776;56.194;44.160;2022-10-19T00:35:59;4.03;;;1.20;;
73524;SDS011;61776;56.194;44.160;2022-10-19T00:38:25;2.53;;;1.10;;
73524;SDS011;61776;56.194;44.160;2022-10-19T00:40:51;2.92;;;1.20;;
73524;SDS011;61776;56.194;44.160;2022-10-19T00:43:24;2.90;;;1.05;;
73524;SDS011;61776;56.194;44.160;2022-10-19T00:45:52;2.80;;;1.20;;
73524;SDS011;61776;56.194;44.160;2022-10-19T00:48:19;3.43;;;1.10;;
73524;SDS011;61776;56.194;44.160;2022-10-19T00:50:53;3.10;;;1.30;;
73524;SDS011;61776;56.194;44.160;2022-10-19T00:53:20;3.08;;;1.20;;
73524;SDS011;61776;56.194;44.160;2022-10-19T00:55:50;3.63;;;1.60;;
73524;SDS011;61776;56.194;44.160;2022-10-19T00:58:16;3.47;;;1.33;;
73524;SDS011;61776;56.194;44.160;2022-10-19T01:00:42;3.88;;;1.10;;
73524;SDS011;61776;56.194;44.160;2022-10-19T01:03:08;4.00;;;1.15;;
73524;SDS011;61776;56.194;44.160;2022-10-19T01:05:36;3.40;;;1.30;;
73524;SDS011;61776;56.194;44.160;2022-10-19T01:08:03;3.40;;;1.13;;
73524;SDS011;61776;56.194;44.160;2022-10-19T01:10:54;2.47;;;1.10;;
73524;SDS011;61776;56.194;44.160;2022-10-19T01:31:02;2.42;;;0.90;;
73524;SDS011;61776;56.194;44.160;2022-10-19T01:36:13;3.07;;;1.03;;
73524;SDS011;61776;56.194;44.160;2022-10-19T01:46:45;2.85;;;1.10;;
73524;SDS011;61776;56.194;44.160;2022-10-19T01:49:25;3.03;;;0.83;;
73524;SDS011;61776;56.194;44.160;2022-10-19T01:51:58;2.50;;;0.93;;
73524;SDS011;61776;56.194;44.160;2022-10-19T01:54:29;3.03;;;0.95;;
73524;SDS011;61776;56.194;44.160;2022-10-19T01:57:00;3.55;;;0.70;;
73524;SDS011;61776;56.194;44.160;2022-10-19T01:59:29;2.58;;;0.80;;
73524;SDS011;61776;56.194;44.160;2022-10-19T02:01:57;2.17;;;0.70;;
73524;SDS011;61776;56.194;44.160;2022-10-19T02:04:24;3.30;;;1.02;;
73524;SDS011;61776;56.194;44.160;2022-10-19T02:06:51;2.53;;;1.02;;
73524;SDS011;61776;56.194;44.160;2022-10-19T02:09:18;2.50;;;0.93;;
73524;SDS011;61776;56.194;44.160;2022-10-19T02:11:45;3.58;;;1.42;;
73524;SDS011;61776;56.194;44.160;2022-10-19T02:14:14;4.10;;;1.10;;
73524;SDS011;61776;56.194;44.160;2022-10-19T02:16:47;3.90;;;0.88;;
73524;SDS011;61776;56.194;44.160;2022-10-19T02:19:18;3.10;;;0.90;;
73524;SDS011;61776;56.194;44.160;2022-10-19T02:21:46;3.08;;;0.80;;
73524;SDS011;61776;56.194;44.160;2022-10-19T02:24:12;3.38;;;1.27;;
73524;SDS011;61776;56.194;44.160;2022-10-19T02:26:38;4.17;;;0.90;;
73524;SDS011;61776;56.194;44.160;2022-10-19T02:29:05;4.07;;;1.00;;
73524;SDS011;61776;56.194;44.160;2022-10-19T02:31:32;2.97;;;1.00;;
73524;SDS011;61776;56.194;44.160;2022-10-19T02:33:58;2.97;;;0.90;;
73524;SDS011;61776;56.194;44.160;2022-10-19T02:36:24;3.17;;;1.30;;
73524;SDS011;61776;56.194;44.160;2022-10-19T02:38:50;2.80;;;1.08;;
73524;SDS011;61776;56.194;44.160;2022-10-19T02:41:17;4.25;;;1.17;;
73524;SDS011;61776;56.194;44.160;2022-10-19T02:43:47;4.53;;;1.00;;
73524;SDS011;61776;56.194;44.160;2022-10-19T02:46:22;2.70;;;1.17;;
73524;SDS011;61776;56.194;44.160;2022-10-19T02:48:53;3.35;;;1.00;;
73524;SDS011;61776;56.194;44.160;2022-10-19T02:51:34;2.88;;;1.00;;
73524;SDS011;61776;56.194;44.160;2022-10-19T02:54:02;2.90;;;0.90;;
73524;SDS011;61776;56.194;44.160;2022-10-19T02:56:29;2.33;;;0.90;;
73524;SDS011;61776;56.194;44.160;2022-10-19T02:58:55;2.87;;;0.83;;
73524;SDS011;61776;56.194;44.160;2022-10-19T03:01:22;2.17;;;0.80;;
73524;SDS011;61776;56.194;44.160;2022-10-19T03:03:48;2.00;;;0.80;;
73524;SDS011;61776;56.194;44.160;2022-10-19T03:06:14;3.05;;;1.08;;
73524;SDS011;61776;56.194;44.160;2022-10-19T03:08:40;2.57;;;1.20;;
73524;SDS011;61776;56.194;44.160;2022-10-19T03:11:06;2.65;;;0.90;;
73524;SDS011;61776;56.194;44.160;2022-10-19T03:13:32;2.25;;;1.00;;
73524;SDS011;61776;56.194;44.160;2022-10-19T03:16:04;3.27;;;1.30;;
73524;SDS011;61776;56.194;44.160;2022-10-19T03:18:31;2.47;;;0.97;;
73524;SDS011;61776;56.194;44.160;2022-10-19T03:21:07;2.60;;;1.15;;
73524;SDS011;61776;56.194;44.160;2022-10-19T03:23:34;2.10;;;0.80;;
73524;SDS011;61776;56.194;44.160;2022-10-19T03:26:00;2.47;;;1.00;;
73524;SDS011;61776;56.194;44.160;2022-10-19T03:28:27;2.17;;;1.00;;
73524;SDS011;61776;56.194;44.160;2022-10-19T03:30:53;2.47;;;0.90;;
73524;SDS011;61776;56.194;44.160;2022-10-19T03:33:19;2.20;;;0.90;;
73524;SDS011;61776;56.194;44.160;2022-10-19T03:35:45;3.87;;;0.93;;
73524;SDS011;61776;56.194;44.160;2022-10-19T03:38:11;2.40;;;0.93;;
73524;SDS011;61776;56.194;44.160;2022-10-19T03:40:37;2.38;;;0.52;;
73524;SDS011;61776;56.194;44.160;2022-10-19T03:43:03;2.45;;;0.60;;
73524;SDS011;61776;56.194;44.160;2022-10-19T03:45:28;2.08;;;0.82;;
73524;SDS011;61776;56.194;44.160;2022-10-19T03:47:54;4.53;;;0.80;;
73524;SDS011;61776;56.194;44.160;2022-10-19T03:50:20;4.90;;;0.88;;
73524;SDS011;61776;56.194;44.160;2022-10-19T03:52:46;2.67;;;0.90;;
73524;SDS011;61776;56.194;44.160;2022-10-19T03:55:14;1.90;;;0.70;;
73524;SDS011;61776;56.194;44.160;2022-10-19T03:57:40;2.80;;;0.70;;
73524;SDS011;61776;56.194;44.160;2022-10-19T04:00:07;3.95;;;1.10;;
73524;SDS011;61776;56.194;44.160;2022-10-19T04:02:40;2.90;;;0.90;;
73524;SDS011;61776;56.194;44.160;2022-10-19T04:05:06;2.87;;;1.17;;
73524;SDS011;61776;56.194;44.160;2022-10-19T04:07:32;3.63;;;0.98;;
73524;SDS011;61776;56.194;44.160;2022-10-19T04:09:58;2.97;;;0.70;;
73524;SDS011;61776;56.194;44.160;2022-10-19T04:12:23;3.80;;;1.20;;
73524;SDS011;61776;56.194;44.160;2022-10-19T04:14:49;4.85;;;1.38;;
73524;SDS011;61776;56.194;44.160;2022-10-19T04:17:15;5.22;;;1.20;;
73524;SDS011;61776;56.194;44.160;2022-10-19T04:19:41;3.90;;;1.20;;
73524;SDS011;61776;56.194;44.160;2022-10-19T04:22:07;5.20;;;1.40;;
73524;SDS011;61776;56.194;44.160;2022-10-19T04:24:32;5.72;;;1.10;;
73524;SDS011;61776;56.194;44.160;2022-10-19T04:26:58;5.40;;;1.13;;
73524;SDS011;61776;56.194;44.160;2022-10-19T04:29:24;4.68;;;1.00;;
73524;SDS011;61776;56.194;44.160;2022-10-19T04:31:51;7.60;;;1.20;;
73524;SDS011;61776;56.194;44.160;2022-10-19T04:34:18;4.93;;;1.30;;
73524;SDS011;61776;56.194;44.160;2022-10-19T04:36:44;4.72;;;1.10;;
73524;SDS011;61776;56.194;44.160;2022-10-19T04:39:10;3.75;;;1.20;;
73524;SDS011;61776;56.194;44.160;2022-10-19T04:41:36;3.35;;;0.80;;
73524;SDS011;61776;56.194;44.160;2022-10-19T04:44:02;5.57;;;1.45;;
73524;SDS011;61776;56.194;44.160;2022-10-19T04:46:31;4.33;;;1.10;;
73524;SDS011;61776;56.194;44.160;2022-10-19T04:48:57;5.75;;;1.30;;
73524;SDS011;61776;56.194;44.160;2022-10-19T04:51:23;3.60;;;1.27;;
73524;SDS011;61776;56.194;44.160;2022-10-19T04:53:50;3.28;;;1.20;;
73524;SDS011;61776;56.194;44.160;2022-10-19T04:56:21;4.95;;;1.45;;
73524;SDS011;61776;56.194;44.160;2022-10-19T04:58:52;4.50;;;1.00;;
73524;SDS011;61776;56.194;44.160;2022-10-19T05:01:20;4.28;;;1.25;;
73524;SDS011;61776;56.194;44.160;2022-10-19T05:03:46;6.43;;;1.40;;
73524;SDS011;61776;56.194;44.160;2022-10-19T05:06:13;7.20;;;1.10;;
73524;SDS011;61776;56.194;44.160;2022-10-19T05:08:40;8.85;;;1.30;;
73524;SDS011;61776;56.194;44.160;2022-10-19T05:11:07;3.03;;;1.10;;
73524;SDS011;61776;56.194;44.160;2022-10-19T05:13:35;3.17;;;1.10;;
73524;SDS011;61776;56.194;44.160;2022-10-19T05:16:02;4.60;;;1.30;;
73524;SDS011;61776;56.194;44.160;2022-10-19T05:18:29;3.60;;;1.48;;
73524;SDS011;61776;56.194;44.160;2022-10-19T05:21:04;3.43;;;1.27;;
73524;SDS011;61776;56.194;44.160;2022-10-19T05:23:31;3.45;;;1.20;;
73524;SDS011;61776;56.194;44.160;2022-10-19T05:25:58;4.13;;;1.20;;
73524;SDS011;61776;56.194;44.160;2022-10-19T05:28:25;3.20;;;1.00;;
73524;SDS011;61776;56.194;44.160;2022-10-19T05:30:51;4.73;;;1.10;;
73524;SDS011;61776;56.194;44.160;2022-10-19T05:33:17;3.55;;;1.25;;
73524;SDS011;61776;56.194;44.160;2022-10-19T05:35:42;6.30;;;1.48;;
73524;SDS011;61776;56.194;44.160;2022-10-19T05:38:08;2.57;;;0.90;;
73524;SDS011;61776;56.194;44.160;2022-10-19T05:40:34;9.80;;;1.40;;
73524;SDS011;61776;56.194;44.160;2022-10-19T05:43:00;5.10;;;1.03;;
73524;SDS011;61776;56.194;44.160;2022-10-19T05:45:25;4.82;;;0.85;;
73524;SDS011;61776;56.194;44.160;2022-10-19T05:47:51;3.20;;;1.20;;
73524;SDS011;61776;56.194;44.160;2022-10-19T05:50:17;4.37;;;1.30;;
73524;SDS011;61776;56.194;44.160;2022-10-19T05:52:43;5.25;;;1.15;;
73524;SDS011;61776;56.194;44.160;2022-10-19T17:13:37;8.45;;;2.42;;
73524;SDS011;61776;56.194;44.160;2022-10-19T17:16:05;6.80;;;2.23;;
73524;SDS011;61776;56.194;44.160;2022-10-19T17:18:32;5.10;;;2.28;;
73524;SDS011;61776;56.194;44.160;2022-10-19T17:21:02;5.90;;;2.40;;
73524;SDS011;61776;56.194;44.160;2022-10-19T17:23:29;7.10;;;2.20;;
73524;SDS011;61776;56.194;44.160;2022-10-19T17:25:55;4.20;;;1.90;;
73524;SDS011;61776;56.194;44.160;2022-10-19T17:28:21;5.55;;;2.17;;
73524;SDS011;61776;56.194;44.160;2022-10-19T17:30:47;4.68;;;1.92;;
73524;SDS011;61776;56.194;44.160;2022-10-19T17:33:14;6.20;;;2.40;;
73524;SDS011;61776;56.194;44.160;2022-10-19T17:35:40;4.20;;;2.00;;
73524;SDS011;61776;56.194;44.160;2022-10-19T17:38:06;6.32;;;2.40;;
73524;SDS011;61776;56.194;44.160;2022-10-19T17:40:31;4.87;;;2.33;;
73524;SDS011;61776;56.194;44.160;2022-10-19T17:42:57;4.13;;;2.10;;
73524;SDS011;61776;56.194;44.160;2022-10-19T17:45:23;4.75;;;2.20;;
73524;SDS011;61776;56.194;44.160;2022-10-19T17:47:49;4.67;;;2.20;;
73524;SDS011;61776;56.194;44.160;2022-10-19T17:50:15;5.10;;;2.25;;
73524;SDS011;61776;56.194;44.160;2022-10-19T17:52:41;6.75;;;2.13;;
73524;SDS011;61776;56.194;44.160;2022-10-19T17:55:07;5.20;;;2.20;;
73524;SDS011;61776;56.194;44.160;2022-10-19T17:57:34;5.38;;;2.20;;
73524;SDS011;61776;56.194;44.160;2022-10-19T18:00:00;5.55;;;2.70;;
73524;SDS011;61776;56.194;44.160;2022-10-19T18:02:26;5.35;;;2.63;;
73524;SDS011;61776;56.194;44.160;2022-10-19T18:04:52;5.38;;;2.60;;
73524;SDS011;61776;56.194;44.160;2022-10-19T18:07:18;8.43;;;2.57;;
73524;SDS011;61776;56.194;44.160;2022-10-19T18:09:46;4.85;;;2.42;;
73524;SDS011;61776;56.194;44.160;2022-10-19T18:12:12;6.45;;;2.88;;
73524;SDS011;61776;56.194;44.160;2022-10-19T18:14:38;6.28;;;2.63;;
73524;SDS011;61776;56.194;44.160;2022-10-19T18:17:04;5.97;;;2.70;;
73524;SDS011;61776;56.194;44.160;2022-10-19T18:19:30;7.22;;;3.10;;
73524;SDS011;61776;56.194;44.160;2022-10-19T18:21:56;7.50;;;2.85;;
73524;SDS011;61776;56.194;44.160;2022-10-19T18:24:22;6.55;;;2.70;;
73524;SDS011;61776;56.194;44.160;2022-10-19T18:26:49;7.05;;;2.90;;
73524;SDS011;61776;56.194;44.160;2022-10-19T18:29:19;5.27;;;3.00;;
73524;SDS011;61776;56.194;44.160;2022-10-19T18:31:48;5.72;;;3.13;;
73524;SDS011;61776;56.194;44.160;2022-10-19T18:34:19;8.35;;;3.17;;
73524;SDS011;61776;56.194;44.160;2022-10-19T18:36:46;7.65;;;3.10;;
73524;SDS011;61776;56.194;44.160;2022-10-19T18:39:12;5.15;;;2.50;;
73524;SDS011;61776;56.194;44.160;2022-10-19T18:41:38;7.67;;;2.90;;
73524;SDS011;61776;56.194;44.160;2022-10-19T18:44:05;6.63;;;3.25;;
73524;SDS011;61776;56.194;44.160;2022-10-19T18:46:33;6.18;;;3.28;;
73524;SDS011;61776;56.194;44.160;2022-10-19T18:49:01;8.52;;;3.60;;
73524;SDS011;61776;56.194;44.160;2022-10-19T18:51:28;6.82;;;3.80;;
73524;SDS011;61776;56.194;44.160;2022-10-19T18:53:56;6.90;;;3.00;;
73524;SDS011;61776;56.194;44.160;2022-10-19T18:56:25;5.90;;;3.15;;
73524;SDS011;61776;56.194;44.160;2022-10-19T18:58:51;8.77;;;3.58;;
73524;SDS011;61776;56.194;44.160;2022-10-19T19:01:18;9.65;;;4.15;;
73524;SDS011;61776;56.194;44.160;2022-10-19T19:03:48;8.07;;;3.47;;
73524;SDS011;61776;56.194;44.160;2022-10-19T19:06:16;7.88;;;3.60;;
73524;SDS011;61776;56.194;44.160;2022-10-19T19:08:57;7.80;;;3.22;;
73524;SDS011;61776;56.194;44.160;2022-10-19T19:11:26;9.23;;;3.75;;
73524;SDS011;61776;56.194;44.160;2022-10-19T19:13:57;8.25;;;4.20;;
73524;SDS011;61776;56.194;44.160;2022-10-19T19:16:24;7.97;;;3.93;;
73524;SDS011;61776;56.194;44.160;2022-10-19T19:18:51;9.43;;;4.20;;
73524;SDS011;61776;56.194;44.160;2022-10-19T19:21:25;11.02;;;4.82;;
73524;SDS011;61776;56.194;44.160;2022-10-19T19:23:54;8.70;;;4.70;;
73524;SDS011;61776;56.194;44.160;2022-10-19T19:26:22;11.48;;;4.70;;
73524;SDS011;61776;56.194;44.160;2022-10-19T19:28:50;9.03;;;4.33;;
73524;SDS011;61776;56.194;44.160;2022-10-19T19:31:17;9.68;;;4.70;;
73524;SDS011;61776;56.194;44.160;2022-10-19T19:33:43;9.43;;;4.45;;
73524;SDS011;61776;56.194;44.160;2022-10-19T19:36:11;7.72;;;4.25;;
73524;SDS011;61776;56.194;44.160;2022-10-19T19:38:37;8.75;;;4.07;;
73524;SDS011;61776;56.194;44.160;2022-10-19T19:41:04;8.07;;;4.23;;
73524;SDS011;61776;56.194;44.160;2022-10-19T19:43:31;9.52;;;4.40;;
73524;SDS011;61776;56.194;44.160;2022-10-19T19:46:00;12.30;;;4.55;;
73524;SDS011;61776;56.194;44.160;2022-10-19T19:48:29;7.22;;;4.07;;
73524;SDS011;61776;56.194;44.160;2022-10-19T19:50:55;8.25;;;4.57;;
73524;SDS011;61776;56.194;44.160;2022-10-19T19:53:21;8.47;;;4.20;;
73524;SDS011;61776;56.194;44.160;2022-10-19T19:55:47;9.50;;;4.10;;
73524;SDS011;61776;56.194;44.160;2022-10-19T19:58:14;9.50;;;4.55;;
73524;SDS011;61776;56.194;44.160;2022-10-19T20:00:41;7.07;;;4.07;;
73524;SDS011;61776;56.194;44.160;2022-10-19T20:03:08;7.90;;;4.40;;
73524;SDS011;61776;56.194;44.160;2022-10-19T20:05:35;9.60;;;4.20;;
73524;SDS011;61776;56.194;44.160;2022-10-19T20:08:01;10.32;;;3.97;;
73524;SDS011;61776;56.194;44.160;2022-10-19T20:10:27;7.53;;;3.95;;
73524;SDS011;61776;56.194;44.160;2022-10-19T20:12:53;7.80;;;4.13;;
73524;SDS011;61776;56.194;44.160;2022-10-19T20:15:19;9.38;;;4.10;;
73524;SDS011;61776;56.194;44.160;2022-10-19T20:17:45;9.57;;;4.25;;
73524;SDS011;61776;56.194;44.160;2022-10-19T20:20:11;8.60;;;4.07;;
73524;SDS011;61776;56.194;44.160;2022-10-19T20:22:43;8.02;;;3.85;;
73524;SDS011;61776;56.194;44.160;2022-10-19T20:25:10;8.95;;;4.15;;
73524;SDS011;61776;56.194;44.160;2022-10-19T20:27:37;8.27;;;4.07;;
73524;SDS011;61776;56.194;44.160;2022-10-19T20:30:03;7.63;;;3.85;;
73524;SDS011;61776;56.194;44.160;2022-10-19T20:32:29;9.40;;;3.97;;
73524;SDS011;61776;56.194;44.160;2022-10-19T20:34:56;7.68;;;4.13;;
73524;SDS011;61776;56.194;44.160;2022-10-19T20:37:21;8.60;;;4.10;;
73524;SDS011;61776;56.194;44.160;2022-10-19T20:39:48;9.10;;;4.00;;
73524;SDS011;61776;56.194;44.160;2022-10-19T20:42:14;8.50;;;3.90;;
73524;SDS011;61776;56.194;44.160;2022-10-19T20:44:42;6.13;;;3.55;;
73524;SDS011;61776;56.194;44.160;2022-10-19T20:47:08;7.55;;;3.95;;
73524;SDS011;61776;56.194;44.160;2022-10-19T20:49:35;8.45;;;3.83;;
73524;SDS011;61776;56.194;44.160;2022-10-19T20:52:00;7.77;;;3.97;;
73524;SDS011;61776;56.194;44.160;2022-10-19T20:54:27;6.65;;;3.88;;
73524;SDS011;61776;56.194;44.160;2022-10-19T20:56:53;8.90;;;3.67;;
73524;SDS011;61776;56.194;44.160;2022-10-19T20:59:19;7.78;;;3.58;;
73524;SDS011;61776;56.194;44.160;2022-10-19T21:01:51;6.68;;;3.67;;
73524;SDS011;61776;56.194;44.160;2022-10-19T21:04:19;6.87;;;4.00;;
73524;SDS011;61776;56.194;44.160;2022-10-19T21:06:46;7.80;;;3.50;;
73524;SDS011;61776;56.194;44.160;2022-10-19T21:09:14;8.05;;;3.83;;
73524;SDS011;61776;56.194;44.160;2022-10-19T21:11:42;8.20;;;4.30;;
73524;SDS011;61776;56.194;44.160;2022-10-19T21:14:13;7.27;;;3.40;;
73524;SDS011;61776;56.194;44.160;2022-10-19T21:16:41;8.20;;;3.60;;
73524;SDS011;61776;56.194;44.160;2022-10-19T21:19:09;11.05;;;4.05;;
73524;SDS011;61776;56.194;44.160;2022-10-19T21:21:38;15.07;;;3.60;;
73524;SDS011;61776;56.194;44.160;2022-10-19T21:24:06;7.20;;;3.75;;
73524;SDS011;61776;56.194;44.160;2022-10-19T21:26:35;6.87;;;3.13;;
73524;SDS011;61776;56.194;44.160;2022-10-19T21:29:02;8.80;;;3.75;;
73524;SDS011;61776;56.194;44.160;2022-10-19T21:31:29;9.13;;;3.85;;
73524;SDS011;61776;56.194;44.160;2022-10-19T21:33:55;7.15;;;3.80;;
73524;SDS011;61776;56.194;44.160;2022-10-19T21:36:22;9.60;;;3.50;;
73524;SDS011;61776;56.194;44.160;2022-10-19T21:38:51;8.73;;;3.60;;
73524;SDS011;61776;56.194;44.160;2022-10-19T21:41:18;6.55;;;3.20;;
73524;SDS011;61776;56.194;44.160;2022-10-19T21:43:45;6.68;;;3.47;;
73524;SDS011;61776;56.194;44.160;2022-10-19T21:46:12;8.87;;;3.40;;
73524;SDS011;61776;56.194;44.160;2022-10-19T21:48:39;7.95;;;3.30;;
73524;SDS011;61776;56.194;44.160;2022-10-19T21:54:03;7.80;;;3.30;;
73524;SDS011;61776;56.194;44.160;2022-10-19T21:56:30;8.13;;;3.90;;
73524;SDS011;61776;56.194;44.160;2022-10-19T21:58:56;7.50;;;3.80;;
73524;SDS011;61776;56.194;44.160;2022-10-19T22:02:47;6.68;;;3.53;;
73524;SDS011;61776;56.194;44.160;2022-10-19T22:06:23;8.43;;;3.63;;
73524;SDS011;61776;56.194;44.160;2022-10-19T22:09:59;9.27;;;4.20;;
